createdAt,value
2019-03-03T00:30:25.773Z,79.60
2019-03-03T00:32:18.743Z,80.10
2019-03-03T00:34:12.933Z,79.60
2019-03-03T00:36:05.535Z,79.40
2019-03-03T00:38:09.283Z,80.00
2019-03-03T00:40:06.571Z,80.30
2019-03-03T00:42:01.045Z,79.70
2019-03-03T00:44:07.995Z,79.30
2019-03-03T01:14:56.262Z,79.40
2019-03-03T01:16:57.263Z,79.70
2019-03-03T01:18:57.580Z,80.10
2019-03-03T01:20:54.831Z,79.10
2019-03-03T01:22:49.250Z,79.20
2019-03-03T01:24:57.147Z,78.60
2019-03-03T01:26:50.239Z,78.80
2019-03-03T01:28:42.736Z,79.00
2019-03-03T01:30:35.627Z,79.30
2019-03-03T01:32:28.457Z,79.30
2019-03-03T01:34:21.604Z,78.20
2019-03-03T01:36:14.397Z,78.10
2019-03-03T01:38:07.417Z,78.40
2019-03-03T01:40:00.274Z,79.20
2019-03-03T01:41:54.583Z,78.50
2019-03-03T01:43:47.364Z,78.30
2019-03-03T01:45:40.237Z,77.70
2019-03-03T01:47:33.176Z,78.00
2019-03-03T01:49:25.518Z,77.40
2019-03-03T01:51:18.230Z,77.20
2019-03-03T01:53:11.109Z,77.40
2019-03-03T01:55:06.330Z,78.70
2019-03-03T01:56:59.166Z,78.00
2019-03-03T01:58:51.605Z,77.60
2019-03-03T02:00:44.978Z,77.30
2019-03-03T02:02:37.761Z,77.50
2019-03-03T02:04:30.649Z,77.00
2019-03-03T02:06:23.473Z,77.40
2019-03-03T02:08:16.458Z,77.80
2019-03-03T02:10:09.471Z,77.10
2019-03-03T02:12:02.654Z,76.70
2019-03-03T02:13:55.984Z,76.80
2019-03-03T02:15:49.044Z,77.00
2019-03-03T02:17:41.383Z,77.40
2019-03-03T02:19:33.971Z,76.90
2019-03-03T02:21:26.891Z,77.10
2019-03-03T02:23:20.048Z,76.80
2019-03-03T02:25:14.152Z,77.50
2019-03-03T02:27:06.728Z,77.10
2019-03-03T02:28:59.832Z,77.20
2019-03-03T02:30:52.169Z,76.90
2019-03-03T02:32:45.000Z,77.00
2019-03-03T02:34:37.729Z,77.20
2019-03-03T02:36:30.755Z,77.30
2019-03-03T02:38:23.598Z,77.30
2019-03-03T02:40:17.778Z,77.70
2019-03-03T02:42:10.452Z,77.80
2019-03-03T02:44:03.757Z,77.70
2019-03-03T02:45:56.772Z,77.30
2019-03-03T02:47:49.155Z,77.30
2019-03-03T02:49:41.606Z,77.10
2019-03-03T02:51:34.420Z,77.60
2019-03-03T02:53:27.372Z,77.50
2019-03-03T02:55:20.148Z,77.10
2019-03-03T02:57:13.370Z,77.00
2019-03-03T02:58:57.345Z,77.30
2019-03-03T03:00:51.722Z,77.20
2019-03-03T03:02:46.252Z,77.30
2019-03-03T03:04:39.133Z,77.10
2019-03-03T03:06:36.489Z,77.40
2019-03-03T03:08:46.115Z,77.60
2019-03-03T03:10:56.079Z,77.40
2019-03-03T03:12:56.405Z,77.50
2019-03-03T03:14:51.168Z,77.50
2019-03-03T03:16:46.331Z,77.70
2019-03-03T03:18:57.290Z,77.60
2019-03-03T03:20:55.127Z,78.00
2019-03-03T03:22:52.350Z,77.80
2019-03-03T03:24:46.971Z,77.90
2019-03-03T03:26:57.845Z,77.60
2019-03-03T03:29:01.387Z,77.70
2019-03-03T03:30:55.778Z,77.80
2019-03-03T03:32:56.105Z,78.00
2019-03-03T03:35:02.694Z,78.20
2019-03-03T03:36:57.556Z,77.90
2019-03-03T03:38:52.158Z,77.60
2019-03-03T03:40:52.887Z,77.70
2019-03-03T03:42:50.156Z,77.90
2019-03-03T03:44:44.899Z,77.70
2019-03-03T03:46:39.475Z,77.30
2019-03-03T03:48:39.177Z,77.40
2019-03-03T03:50:45.854Z,77.40
2019-03-03T03:52:49.678Z,77.80
2019-03-03T03:54:44.267Z,77.80
2019-03-03T03:56:38.865Z,77.40
2019-03-03T03:58:36.435Z,77.40
2019-03-03T04:00:37.171Z,77.70
2019-03-03T04:02:48.200Z,77.80
2019-03-03T04:04:42.754Z,77.60
2019-03-03T04:06:37.153Z,77.60
2019-03-03T04:08:35.521Z,77.80
2019-03-03T04:10:32.716Z,77.50
2019-03-03T04:12:26.948Z,77.60
2019-03-03T04:14:36.528Z,77.70
2019-03-03T04:16:31.203Z,77.60
2019-03-03T04:18:31.708Z,77.40
2019-03-03T04:20:42.980Z,77.60
2019-03-03T04:22:40.594Z,77.90
2019-03-03T04:24:53.698Z,77.70
2019-03-03T04:26:56.698Z,77.90
2019-03-03T04:28:53.796Z,77.50
2019-03-03T04:30:54.441Z,77.50
2019-03-03T04:32:48.925Z,78.70
2019-03-03T04:34:46.256Z,77.50
2019-03-03T04:36:56.791Z,77.70
2019-03-03T04:38:57.326Z,78.20
2019-03-03T04:40:51.756Z,77.90
2019-03-03T04:42:46.137Z,77.60
2019-03-03T04:44:49.848Z,78.20
2019-03-03T04:46:50.628Z,78.00
2019-03-03T04:48:45.232Z,78.00
2019-03-03T04:50:45.908Z,78.40
2019-03-03T04:52:46.636Z,78.50
2019-03-03T04:54:41.139Z,78.00
2019-03-03T04:56:48.013Z,78.00
2019-03-03T04:58:48.799Z,78.20
2019-03-03T05:01:03.129Z,78.20
2019-03-03T05:03:14.174Z,78.50
2019-03-03T05:05:12.589Z,78.00
2019-03-03T05:07:10.009Z,77.70
2019-03-03T05:09:10.475Z,77.90
2019-03-03T05:11:04.844Z,77.70
2019-03-03T05:13:16.107Z,78.10
2019-03-03T05:15:12.740Z,78.30
2019-03-03T05:17:08.693Z,77.90
2019-03-03T05:19:03.683Z,77.90
2019-03-03T05:20:56.572Z,77.60
2019-03-03T05:22:49.382Z,77.50
2019-03-03T05:24:42.045Z,77.00
2019-03-03T05:26:34.473Z,76.90
2019-03-03T05:28:27.239Z,77.00
2019-03-03T05:30:20.031Z,77.20
2019-03-03T05:32:12.828Z,76.50
2019-03-03T05:34:07.082Z,76.30
2019-03-03T05:36:00.015Z,74.70
2019-03-03T05:37:52.838Z,75.00
2019-03-03T05:39:45.615Z,74.80
2019-03-03T05:41:38.192Z,74.50
2019-03-03T05:43:30.539Z,74.80
2019-03-03T05:45:23.041Z,74.70
2019-03-03T05:47:15.833Z,74.80
2019-03-03T05:49:08.613Z,74.40
2019-03-03T05:51:00.917Z,74.50
2019-03-03T05:52:53.946Z,74.20
2019-03-03T05:54:46.491Z,74.50
2019-03-03T05:56:39.266Z,74.60
2019-03-03T05:58:33.645Z,74.70
2019-03-03T06:00:26.569Z,74.90
2019-03-03T06:02:19.432Z,74.70
2019-03-03T06:04:12.257Z,75.50
2019-03-03T06:06:04.897Z,74.60
2019-03-03T06:07:57.225Z,74.60
2019-03-03T06:09:50.608Z,75.30
2019-03-03T06:11:43.528Z,74.60
2019-03-03T06:13:36.219Z,75.50
2019-03-03T06:15:28.775Z,75.00
2019-03-03T06:17:21.607Z,75.50
2019-03-03T06:19:14.135Z,74.80
2019-03-03T06:21:06.977Z,75.10
2019-03-03T06:22:59.825Z,75.10
2019-03-03T06:24:52.788Z,75.00
2019-03-03T06:26:45.582Z,74.70
2019-03-03T06:28:38.399Z,74.80
2019-03-03T06:30:32.503Z,74.60
2019-03-03T06:32:24.938Z,74.80
2019-03-03T06:34:17.740Z,75.10
2019-03-03T06:36:10.604Z,74.80
2019-03-03T06:38:03.406Z,74.80
2019-03-03T06:39:56.164Z,74.20
2019-03-03T06:41:49.111Z,74.30
2019-03-03T06:43:41.961Z,74.50
2019-03-03T06:45:34.305Z,74.60
2019-03-03T06:47:28.216Z,74.60
2019-03-03T06:49:20.614Z,74.40
2019-03-03T06:51:13.552Z,74.10
2019-03-03T06:53:06.379Z,74.30
2019-03-03T06:54:59.148Z,74.30
2019-03-03T06:56:51.643Z,73.70
2019-03-03T06:58:44.614Z,73.90
2019-03-03T07:00:37.128Z,73.70
2019-03-03T07:02:29.836Z,73.90
2019-03-03T07:04:22.613Z,73.70
2019-03-03T07:06:16.224Z,73.40
2019-03-03T07:08:09.152Z,73.00
2019-03-03T07:10:01.952Z,73.20
2019-03-03T07:11:54.446Z,72.70
2019-03-03T07:13:47.408Z,73.40
2019-03-03T07:15:40.731Z,73.00
2019-03-03T07:17:33.700Z,72.20
2019-03-03T07:19:26.526Z,72.30
2019-03-03T07:21:19.113Z,71.50
2019-03-03T07:23:11.872Z,70.90
2019-03-03T07:25:07.860Z,70.50
2019-03-03T07:27:00.483Z,70.00
2019-03-03T07:28:52.787Z,70.50
2019-03-03T07:30:45.654Z,70.00
2019-03-03T07:32:40.084Z,68.60
2019-03-03T07:34:33.264Z,67.40
2019-03-03T07:36:26.056Z,67.80
2019-03-03T07:38:18.411Z,66.80
2019-03-03T07:40:10.917Z,65.20
2019-03-03T07:42:03.924Z,65.00
2019-03-03T07:43:57.085Z,63.70
2019-03-03T07:45:50.333Z,64.20
2019-03-03T07:47:43.271Z,63.10
2019-03-03T07:49:36.123Z,63.30
2019-03-03T07:51:30.216Z,62.80
2019-03-03T07:53:22.778Z,62.90
2019-03-03T07:55:16.003Z,62.70
2019-03-03T07:57:08.923Z,62.30
2019-03-03T07:59:01.781Z,61.60
2019-03-03T08:00:54.697Z,62.30
2019-03-03T08:02:48.102Z,61.40
2019-03-03T08:04:40.830Z,61.30
2019-03-03T08:06:33.259Z,61.20
2019-03-03T08:08:26.085Z,60.10
2019-03-03T08:10:18.860Z,60.90
2019-03-03T08:12:11.844Z,59.40
2019-03-03T08:14:04.695Z,59.80
2019-03-03T08:15:57.657Z,59.90
2019-03-03T08:17:50.588Z,59.90
2019-03-03T08:19:43.397Z,60.10
2019-03-03T08:21:36.395Z,59.30
2019-03-03T08:23:28.859Z,60.00
2019-03-03T08:25:21.689Z,58.30
2019-03-03T08:27:14.579Z,58.40
2019-03-03T08:29:07.504Z,58.80
2019-03-03T08:31:00.700Z,57.60
2019-03-03T08:32:53.569Z,57.50
2019-03-03T08:34:46.026Z,58.00
2019-03-03T08:36:39.889Z,57.80
2019-03-03T08:38:33.023Z,57.00
2019-03-03T08:40:25.590Z,57.20
2019-03-03T08:42:29.277Z,57.80
2019-03-03T08:44:23.222Z,56.90
2019-03-03T08:46:23.680Z,56.90
2019-03-03T08:48:21.110Z,57.20
2019-03-03T08:50:15.654Z,56.50
2019-03-03T08:52:13.056Z,56.30
2019-03-03T08:54:13.725Z,55.10
2019-03-03T08:56:08.076Z,54.90
2019-03-03T08:58:02.820Z,55.00
2019-03-03T09:00:05.970Z,56.60
2019-03-03T09:02:10.685Z,55.30
2019-03-03T09:04:08.063Z,55.60
2019-03-03T09:06:14.587Z,54.30
2019-03-03T09:08:09.333Z,54.40
2019-03-03T09:10:06.992Z,54.40
2019-03-03T09:12:17.111Z,54.80
2019-03-03T09:14:28.418Z,54.10
2019-03-03T09:16:32.138Z,54.30
2019-03-03T09:18:32.748Z,53.70
2019-03-03T09:20:43.966Z,53.00
2019-03-03T09:22:38.460Z,53.50
2019-03-03T09:24:49.228Z,52.30
2019-03-03T09:26:37.441Z,53.10
2019-03-03T09:28:19.313Z,53.60
2019-03-03T09:30:07.216Z,52.70
2019-03-03T09:31:52.234Z,52.60
2019-03-03T09:33:30.836Z,53.10
2019-03-03T09:35:10.552Z,53.00
2019-03-03T09:36:55.392Z,52.30
2019-03-03T09:38:46.674Z,52.60
2019-03-03T09:40:41.350Z,51.30
2019-03-03T09:42:23.538Z,50.90
2019-03-03T09:43:59.429Z,50.60
2019-03-03T09:45:41.840Z,50.80
2019-03-03T09:47:23.247Z,51.10
2019-03-03T09:49:11.648Z,51.30
2019-03-03T09:50:48.455Z,51.70
2019-03-03T09:52:30.586Z,51.30
2019-03-03T09:54:24.856Z,51.10
2019-03-03T09:56:28.210Z,50.40
2019-03-03T09:58:37.612Z,50.20
2019-03-03T10:00:48.009Z,48.80
2019-03-03T10:02:48.192Z,49.10
2019-03-03T10:04:54.797Z,49.80
2019-03-03T10:06:54.974Z,49.10
2019-03-03T10:08:49.488Z,49.30
2019-03-03T10:10:55.516Z,49.10
2019-03-03T10:13:02.267Z,48.80
2019-03-03T10:15:08.807Z,48.60
2019-03-03T10:17:12.993Z,47.60
2019-03-03T10:19:10.455Z,46.50
2019-03-03T10:21:18.052Z,45.20
2019-03-03T10:23:21.581Z,45.60
2019-03-03T10:25:22.304Z,45.20
2019-03-03T10:27:22.504Z,44.70
2019-03-03T10:29:32.252Z,45.20
2019-03-03T10:31:32.293Z,44.80
2019-03-03T10:33:35.292Z,45.20
2019-03-03T10:35:29.879Z,44.30
2019-03-03T10:37:40.164Z,43.70
2019-03-03T10:39:34.979Z,43.40
2019-03-03T10:41:45.824Z,42.80
2019-03-03T10:43:49.160Z,42.70
2019-03-03T10:45:43.947Z,41.60
2019-03-03T10:47:38.400Z,42.00
2019-03-03T10:49:49.237Z,41.30
2019-03-03T10:51:50.063Z,41.80
2019-03-03T10:53:59.700Z,42.60
2019-03-03T10:55:58.509Z,41.50
2019-03-03T10:58:11.308Z,40.40
2019-03-03T11:00:18.456Z,40.20
2019-03-03T11:02:29.604Z,41.00
2019-03-03T11:04:24.906Z,41.20
2019-03-03T11:06:31.416Z,42.30
2019-03-03T11:08:40.689Z,42.10
2019-03-03T11:10:38.551Z,43.30
2019-03-03T11:12:41.816Z,42.70
2019-03-03T11:14:38.118Z,42.90
2019-03-03T11:16:35.612Z,42.40
2019-03-03T11:18:55.783Z,42.00
2019-03-03T11:20:47.487Z,40.30
2019-03-03T11:22:23.489Z,40.10
2019-03-03T11:23:59.404Z,40.30
2019-03-03T11:25:38.023Z,40.70
2019-03-03T11:27:30.384Z,41.50
2019-03-03T11:29:09.677Z,42.10
2019-03-03T11:30:54.467Z,42.10
2019-03-03T11:32:36.342Z,41.50
2019-03-03T11:34:21.173Z,41.20
2019-03-03T11:35:57.109Z,41.80
2019-03-03T11:38:09.891Z,40.60
2019-03-03T11:39:48.666Z,42.10
2019-03-03T11:41:24.600Z,41.80
2019-03-03T11:43:21.902Z,41.80
2019-03-03T11:45:19.347Z,42.30
2019-03-03T11:47:28.853Z,43.30
2019-03-03T11:49:10.548Z,44.20
2019-03-03T11:50:46.872Z,43.60
2019-03-03T11:52:22.776Z,43.90
2019-03-03T11:54:01.455Z,43.90
2019-03-03T11:56:05.164Z,44.30
2019-03-03T11:58:08.439Z,44.50
2019-03-03T12:00:14.831Z,43.70
2019-03-03T12:02:25.646Z,43.40
2019-03-03T12:04:24.536Z,44.00
2019-03-03T12:06:19.450Z,44.90
2019-03-03T12:08:22.637Z,45.10
2019-03-03T12:10:17.419Z,45.00
2019-03-03T12:12:21.204Z,45.40
2019-03-03T12:14:21.326Z,45.40
2019-03-03T12:16:31.883Z,44.90
2019-03-03T12:18:26.678Z,45.50
2019-03-03T12:20:24.180Z,44.70
2019-03-03T12:22:21.787Z,45.20
2019-03-03T12:24:19.033Z,44.90
2019-03-03T12:26:13.288Z,44.10
2019-03-03T12:28:10.839Z,44.90
2019-03-03T12:30:12.001Z,44.30
2019-03-03T12:32:12.503Z,45.00
2019-03-03T12:34:13.028Z,44.10
2019-03-03T12:36:07.461Z,44.60
2019-03-03T12:38:04.982Z,42.60
2019-03-03T12:39:59.513Z,42.80
2019-03-03T12:41:56.991Z,44.40
2019-03-03T12:43:51.896Z,44.10
2019-03-03T12:45:55.388Z,42.90
2019-03-03T12:48:02.092Z,43.10
2019-03-03T12:49:56.394Z,45.20
2019-03-03T12:51:59.637Z,44.80
2019-03-03T12:53:56.987Z,45.20
2019-03-03T12:55:51.583Z,44.10
2019-03-03T12:57:49.420Z,42.60
2019-03-03T13:00:00.381Z,40.70
2019-03-03T13:02:12.626Z,40.90
2019-03-03T13:04:10.197Z,40.30
2019-03-03T13:06:10.939Z,41.60
2019-03-03T13:08:05.357Z,40.20
2019-03-03T13:10:08.946Z,39.40
2019-03-03T13:12:07.731Z,40.00
2019-03-03T13:14:02.384Z,40.50
2019-03-03T13:15:59.613Z,40.30
2019-03-03T13:17:48.317Z,41.60
2019-03-03T13:19:25.424Z,41.20
2019-03-03T13:21:18.056Z,41.80
2019-03-03T13:22:54.146Z,42.60
2019-03-03T13:24:30.060Z,43.40
2019-03-03T13:26:08.825Z,41.90
2019-03-03T13:27:47.536Z,41.50
2019-03-03T13:29:33.200Z,42.00
2019-03-03T13:31:09.308Z,42.20
2019-03-03T13:32:57.517Z,41.50
2019-03-03T13:34:45.848Z,41.50
2019-03-03T13:36:24.640Z,41.20
2019-03-03T13:38:00.725Z,41.80
2019-03-03T13:39:39.352Z,40.40
2019-03-03T13:41:15.385Z,40.40
2019-03-03T13:42:51.328Z,40.40
2019-03-03T13:44:25.903Z,40.80
2019-03-03T13:46:00.599Z,40.60
2019-03-03T13:47:35.484Z,41.60
2019-03-03T13:49:29.243Z,41.20
2019-03-03T13:51:21.669Z,40.70
2019-03-03T13:53:14.196Z,41.10
2019-03-03T13:55:07.984Z,41.70
2019-03-03T13:57:01.056Z,41.60
2019-03-03T13:58:53.472Z,40.60
2019-03-03T14:00:46.531Z,38.90
2019-03-03T14:02:39.576Z,38.00
2019-03-03T14:04:32.355Z,38.20
2019-03-03T14:06:27.762Z,39.30
2019-03-03T14:08:21.425Z,40.00
2019-03-03T14:10:15.956Z,41.00
2019-03-03T14:12:09.161Z,41.00
2019-03-03T14:14:02.309Z,42.20
2019-03-03T14:15:55.274Z,42.70
2019-03-03T14:17:48.220Z,42.30
2019-03-03T14:19:41.069Z,42.60
2019-03-03T14:21:33.887Z,42.30
2019-03-03T14:23:26.894Z,42.70
2019-03-03T14:25:19.711Z,42.60
2019-03-03T14:27:12.489Z,41.90
2019-03-03T14:29:05.571Z,42.50
2019-03-03T14:30:59.405Z,42.80
2019-03-03T14:32:52.755Z,43.30
2019-03-03T14:34:46.284Z,44.00
2019-03-03T14:36:38.561Z,43.00
2019-03-03T14:38:31.649Z,42.60
2019-03-03T14:40:24.679Z,43.00
2019-03-03T14:42:18.040Z,43.20
2019-03-03T14:44:11.264Z,42.90
2019-03-03T14:46:04.501Z,44.10
2019-03-03T14:47:57.567Z,42.50
2019-03-03T14:49:31.975Z,42.80
2019-03-03T14:51:06.314Z,42.60
2019-03-03T14:52:41.151Z,43.40
2019-03-03T14:54:15.634Z,43.30
2019-03-03T14:55:50.021Z,43.60
2019-03-03T14:57:24.413Z,44.00
2019-03-03T14:58:58.697Z,44.70
2019-03-03T15:00:34.003Z,43.80
2019-03-03T15:02:09.020Z,44.70
2019-03-03T15:03:43.281Z,44.50
2019-03-03T15:05:17.540Z,43.60
2019-03-03T15:06:52.057Z,44.00
2019-03-03T15:08:26.403Z,44.70
2019-03-03T15:10:00.683Z,44.00
2019-03-03T15:11:36.788Z,43.30
2019-03-03T15:13:11.140Z,43.50
2019-03-03T15:14:45.842Z,43.60
2019-03-03T15:16:20.141Z,43.80
2019-03-03T15:17:54.481Z,43.70
2019-03-03T15:19:48.912Z,43.60
2019-03-03T15:21:41.777Z,44.20
2019-03-03T15:23:34.759Z,44.70
2019-03-03T15:25:27.770Z,43.50
2019-03-03T15:27:20.340Z,44.50
2019-03-03T15:29:13.046Z,43.80
2019-03-03T15:31:07.970Z,43.70
2019-03-03T15:33:00.934Z,44.00
2019-03-03T15:34:53.393Z,44.30
2019-03-03T15:36:46.247Z,43.60
2019-03-03T15:38:39.118Z,43.40
2019-03-03T15:40:32.050Z,43.30
2019-03-03T15:42:24.544Z,43.90
2019-03-03T15:44:17.207Z,43.60
2019-03-03T15:46:09.695Z,43.60
2019-03-03T15:48:02.788Z,43.70
2019-03-03T15:49:56.208Z,42.80
2019-03-03T15:51:31.036Z,43.10
2019-03-03T15:53:23.333Z,42.70
2019-03-03T15:55:24.432Z,43.20
2019-03-03T15:57:18.037Z,43.00
2019-03-03T15:59:10.251Z,43.40
2019-03-03T16:01:03.082Z,43.60
2019-03-03T16:02:55.427Z,44.00
2019-03-03T16:04:51.476Z,43.70
2019-03-03T16:06:44.312Z,43.90
2019-03-03T16:08:37.177Z,44.00
2019-03-03T16:10:30.022Z,44.40
2019-03-03T16:12:22.914Z,43.90
2019-03-03T16:14:15.747Z,44.50
2019-03-03T16:16:12.153Z,44.80
2019-03-03T16:18:05.478Z,44.30
2019-03-03T16:19:58.356Z,44.30
2019-03-03T16:21:51.362Z,44.80
2019-03-03T16:23:44.723Z,44.80
2019-03-03T16:25:36.967Z,44.60
2019-03-03T16:27:11.996Z,45.20
2019-03-03T16:28:46.828Z,44.30
2019-03-03T16:30:26.821Z,44.50
2019-03-03T16:32:01.231Z,43.90
2019-03-03T16:33:36.887Z,44.10
2019-03-03T16:35:12.205Z,43.70
2019-03-03T16:36:46.715Z,43.60
2019-03-03T16:38:21.268Z,43.90
2019-03-03T16:39:56.141Z,44.00
2019-03-03T16:41:33.275Z,44.10
2019-03-03T16:43:07.786Z,44.50
2019-03-03T16:44:42.642Z,43.80
2019-03-03T16:46:17.387Z,44.00
2019-03-03T16:47:51.664Z,44.30
2019-03-03T16:49:25.998Z,44.70
2019-03-03T16:51:01.241Z,44.80
2019-03-03T16:52:35.524Z,45.10
2019-03-03T16:54:09.922Z,44.50
2019-03-03T16:55:44.184Z,44.50
2019-03-03T16:57:18.463Z,45.30
2019-03-03T16:59:11.151Z,45.10
2019-03-03T17:01:04.363Z,45.20
2019-03-03T17:02:56.841Z,45.10
2019-03-03T17:04:49.590Z,45.30
2019-03-03T17:06:42.477Z,45.00
2019-03-03T17:08:35.924Z,45.50
2019-03-03T17:10:28.985Z,45.80
2019-03-03T17:12:22.230Z,45.80
2019-03-03T17:14:15.167Z,45.60
2019-03-03T17:16:07.996Z,46.30
2019-03-03T17:18:00.817Z,46.00
2019-03-03T17:19:53.786Z,46.20
2019-03-03T17:21:46.579Z,46.00
2019-03-03T17:23:39.761Z,46.20
2019-03-03T17:25:33.805Z,46.70
2019-03-03T17:27:26.943Z,46.90
2019-03-03T17:29:20.283Z,46.50
2019-03-03T17:31:14.569Z,47.90
2019-03-03T17:33:08.418Z,46.90
2019-03-03T17:35:02.493Z,47.00
2019-03-03T17:36:57.192Z,47.80
2019-03-03T17:38:51.389Z,47.80
2019-03-03T17:40:45.134Z,47.50
2019-03-03T17:42:39.285Z,47.20
2019-03-03T17:44:33.892Z,47.90
2019-03-03T17:46:28.257Z,47.30
2019-03-03T17:48:22.938Z,47.40
2019-03-03T17:50:22.576Z,47.80
2019-03-03T17:52:17.163Z,48.40
2019-03-03T17:54:11.676Z,47.80
2019-03-03T17:56:06.228Z,47.70
2019-03-03T17:58:00.637Z,47.80
2019-03-03T17:59:57.568Z,47.80
2019-03-03T18:01:51.917Z,47.70
2019-03-03T18:03:46.068Z,48.80
2019-03-03T18:05:40.868Z,48.00
2019-03-03T18:07:36.373Z,48.90
2019-03-03T18:09:31.603Z,49.00
2019-03-03T18:11:26.107Z,48.30
2019-03-03T18:13:20.694Z,48.40
2019-03-03T18:15:16.363Z,48.60
2019-03-03T18:17:10.898Z,48.60
2019-03-03T18:19:05.289Z,48.70
2019-03-03T18:21:00.227Z,48.60
2019-03-03T18:22:54.741Z,49.50
2019-03-03T18:24:49.447Z,49.20
2019-03-03T18:26:44.320Z,48.50
2019-03-03T18:28:39.281Z,48.50
2019-03-03T18:30:33.410Z,49.20
2019-03-03T18:32:28.124Z,48.90
2019-03-03T18:34:22.793Z,48.90
2019-03-03T18:35:59.720Z,49.30
2019-03-03T18:37:36.494Z,49.30
2019-03-03T18:39:12.221Z,48.90
2019-03-03T18:40:47.927Z,49.70
2019-03-03T18:42:23.792Z,50.10
2019-03-03T18:43:59.462Z,48.50
2019-03-03T18:45:35.141Z,48.40
2019-03-03T18:47:10.857Z,48.70
2019-03-03T18:48:46.564Z,48.30
2019-03-03T18:50:26.968Z,48.60
2019-03-03T18:52:02.554Z,48.70
2019-03-03T18:53:38.368Z,48.40
2019-03-03T18:55:14.086Z,48.60
2019-03-03T18:56:49.874Z,48.60
2019-03-03T18:58:25.766Z,49.50
2019-03-03T19:00:01.635Z,49.30
2019-03-03T19:01:39.110Z,48.30
2019-03-03T19:03:14.869Z,48.40
2019-03-03T19:04:51.412Z,49.20
2019-03-03T19:06:27.017Z,49.80
2019-03-03T19:08:02.824Z,49.50
2019-03-03T19:09:38.803Z,50.30
2019-03-03T19:11:14.650Z,49.60
2019-03-03T19:12:50.353Z,50.20
2019-03-03T19:14:28.786Z,49.20
2019-03-03T19:16:04.794Z,49.50
2019-03-03T19:17:59.425Z,49.10
2019-03-03T19:19:35.395Z,48.70
2019-03-03T19:21:12.500Z,49.30
2019-03-03T19:22:48.113Z,49.10
2019-03-03T19:24:24.136Z,49.80
2019-03-03T19:26:01.062Z,49.50
2019-03-03T19:27:36.916Z,48.70
2019-03-03T19:29:13.054Z,48.20
2019-03-03T19:30:50.231Z,48.40
2019-03-03T19:32:27.027Z,48.70
2019-03-03T19:34:02.809Z,48.60
2019-03-03T19:35:38.410Z,48.30
2019-03-03T19:37:14.938Z,48.00
2019-03-03T19:38:50.571Z,48.20
2019-03-03T19:40:26.417Z,47.60
2019-03-03T19:42:02.043Z,48.40
2019-03-03T19:43:37.808Z,48.00
2019-03-03T19:45:16.588Z,47.60
2019-03-03T19:46:52.469Z,47.30
2019-03-03T19:48:29.291Z,46.90
2019-03-03T19:50:07.773Z,46.90
2019-03-03T19:51:43.585Z,47.10
2019-03-03T19:53:19.555Z,46.20
2019-03-03T19:54:56.090Z,46.50
2019-03-03T19:56:31.774Z,46.80
2019-03-03T19:58:07.672Z,46.80
2019-03-03T19:59:43.559Z,46.60
2019-03-03T20:01:19.228Z,46.30
2019-03-03T20:02:54.810Z,47.00
2019-03-03T20:04:30.625Z,47.00
2019-03-03T20:06:06.354Z,47.70
2019-03-03T20:07:42.739Z,48.20
2019-03-03T20:09:20.098Z,47.70
2019-03-03T20:10:55.907Z,47.70
2019-03-03T20:12:34.103Z,47.10
2019-03-03T20:14:11.408Z,47.10
2019-03-03T20:15:47.209Z,47.30
2019-03-03T20:17:24.325Z,47.60
2019-03-03T20:19:00.680Z,47.70
2019-03-03T20:20:36.633Z,47.70
2019-03-03T20:22:13.125Z,47.90
2019-03-03T20:23:48.984Z,48.30
2019-03-03T20:25:25.263Z,48.00
2019-03-03T20:27:01.152Z,48.20
2019-03-03T20:28:37.604Z,48.30
2019-03-03T20:30:23.242Z,48.30
2019-03-03T20:31:59.598Z,48.40
2019-03-03T20:33:35.932Z,48.30
2019-03-03T20:35:12.280Z,48.30
2019-03-03T20:36:47.920Z,48.40
2019-03-03T20:38:42.458Z,48.60
2019-03-03T20:40:38.994Z,48.30
2019-03-03T20:42:32.632Z,48.20
2019-03-03T20:44:27.989Z,48.50
2019-03-03T20:46:22.743Z,48.80
2019-03-03T20:48:17.379Z,49.90
2019-03-03T20:50:14.789Z,49.20
2019-03-03T20:52:09.291Z,48.90
2019-03-03T20:54:05.103Z,48.90
2019-03-03T20:56:00.171Z,48.50
2019-03-03T20:57:55.399Z,48.40
2019-03-03T20:59:50.455Z,48.50
2019-03-03T21:01:45.000Z,48.70
2019-03-03T21:03:39.510Z,48.50
2019-03-03T21:05:34.062Z,48.70
2019-03-03T21:07:28.785Z,48.90
2019-03-03T21:09:24.824Z,48.60
2019-03-03T21:11:19.476Z,48.60
2019-03-03T21:13:14.114Z,48.40
2019-03-03T21:15:11.158Z,48.40
2019-03-03T21:17:05.914Z,48.30
2019-03-03T21:19:00.417Z,48.00
2019-03-03T21:20:54.616Z,48.00
2019-03-03T21:22:49.342Z,47.80
2019-03-03T21:24:43.898Z,47.80
2019-03-03T21:26:38.146Z,47.60
2019-03-03T21:28:32.819Z,47.60
2019-03-03T21:30:28.069Z,47.90
2019-03-03T21:32:22.785Z,48.00
2019-03-03T21:34:17.693Z,48.80
2019-03-03T21:36:11.995Z,47.90
2019-03-03T21:38:06.529Z,48.40
2019-03-03T21:40:02.559Z,48.20
2019-03-03T21:41:58.634Z,48.20
2019-03-03T21:43:53.384Z,48.80
2019-03-03T21:45:47.807Z,47.90
2019-03-03T21:47:42.320Z,48.00
2019-03-03T21:49:37.849Z,48.00
2019-03-03T21:51:32.882Z,47.90
2019-03-03T21:53:26.297Z,48.00
2019-03-03T21:55:19.738Z,48.10
2019-03-03T21:57:14.063Z,48.50
2019-03-03T21:59:07.340Z,49.40
2019-03-03T22:01:00.713Z,48.90
2019-03-03T22:02:54.234Z,48.30
2019-03-03T22:04:48.320Z,48.30
2019-03-03T22:06:41.166Z,48.30
2019-03-03T22:08:34.479Z,48.40
2019-03-03T22:10:31.000Z,48.40
2019-03-03T22:12:23.835Z,48.40
2019-03-03T22:14:17.043Z,48.40
2019-03-03T22:16:09.521Z,49.20
2019-03-03T22:18:02.353Z,48.70
2019-03-03T22:19:54.832Z,48.90
2019-03-03T22:21:47.257Z,48.70
2019-03-03T22:23:39.680Z,49.10
2019-03-03T22:25:32.701Z,48.90
2019-03-03T22:27:25.502Z,49.10
2019-03-03T22:29:18.552Z,49.00
2019-03-03T22:31:11.338Z,49.50
2019-03-03T22:33:04.234Z,49.50
2019-03-03T22:34:56.991Z,49.50
2019-03-03T22:36:49.812Z,49.60
2019-03-03T22:38:42.434Z,49.70
2019-03-03T22:40:35.636Z,50.50
2019-03-03T22:42:28.493Z,49.90
2019-03-03T22:44:21.070Z,49.70
2019-03-03T22:46:13.967Z,50.00
2019-03-03T22:48:06.663Z,50.00
2019-03-03T22:50:00.893Z,50.10
2019-03-03T22:51:53.858Z,50.80
2019-03-03T22:53:46.463Z,50.50
2019-03-03T22:55:40.530Z,51.40
2019-03-03T22:57:33.568Z,50.70
2019-03-03T22:59:27.503Z,50.70
2019-03-03T23:01:21.454Z,50.70
2019-03-03T23:03:17.921Z,51.00
2019-03-03T23:05:18.134Z,51.40
2019-03-03T23:07:14.717Z,51.80
2019-03-03T23:09:32.123Z,51.40
2019-03-03T23:11:34.109Z,51.20
2019-03-03T23:13:32.946Z,51.40
2019-03-03T23:15:52.303Z,51.30
2019-03-03T23:17:54.833Z,51.40
2019-03-03T23:20:00.045Z,51.90
2019-03-03T23:22:17.310Z,51.30
2019-03-03T23:24:16.281Z,51.70
2019-03-03T23:26:16.267Z,51.50
2019-03-03T23:28:03.354Z,51.20
2019-03-03T23:29:56.198Z,51.50
2019-03-03T23:31:49.140Z,51.20
2019-03-03T23:33:41.628Z,51.10
2019-03-03T23:35:34.592Z,51.20
2019-03-03T23:37:27.032Z,51.00
2019-03-03T23:39:19.776Z,51.00
2019-03-03T23:41:12.549Z,50.80
2019-03-03T23:43:05.552Z,50.60
2019-03-03T23:44:58.720Z,50.60
2019-03-03T23:46:51.473Z,50.60
2019-03-03T23:48:44.284Z,50.60
2019-03-03T23:50:38.236Z,50.70
2019-03-03T23:52:31.057Z,50.70
2019-03-03T23:54:23.640Z,50.60
2019-03-03T23:56:16.522Z,50.80
2019-03-03T23:58:09.081Z,50.80
